Time,TemperatureF,DewpointF,PressureIn,WindDirection,WindDirectionDegrees,WindSpeedMPH,WindSpeedGustMPH,Humidity,HourlyPrecipIn,Conditions,Clouds,dailyrainin,SolarRadiationWatts/m^2,SoftwareType,DateUTC
2013-04-12 00:02:00,38.0,22.0,-100.00,NE,38,2.0,6.0,53,0.00,,,0.00,288.000000,,2013-04-12 00:02:00,
2013-04-12 00:12:00,38.0,22.0,-100.00,NE,38,2.0,6.0,53,0.00,,,0.00,288.000000,,2013-04-12 00:12:00,
2013-04-12 00:22:00,38.0,22.0,-100.00,NE,38,2.0,6.0,53,0.00,,,0.00,288.000000,,2013-04-12 00:22:00,
2013-04-12 00:32:00,38.0,22.0,-100.00,NE,38,2.0,6.0,53,0.00,,,0.00,288.000000,,2013-04-12 00:32:00,
2013-04-12 00:40:00,34.0,23.0,-100.00,ENE,72,2.0,8.0,63,0.00,,,0.00,109.000000,,2013-04-12 00:40:00,
2013-04-12 01:02:00,34.0,23.0,-100.00,ENE,72,2.0,8.0,63,0.00,,,0.00,109.000000,,2013-04-12 01:02:00,
2013-04-12 01:12:00,34.0,23.0,-100.00,ENE,72,2.0,8.0,63,0.00,,,0.00,109.000000,,2013-04-12 01:12:00,
2013-04-12 01:22:00,34.0,23.0,-100.00,ENE,72,2.0,8.0,63,0.00,,,0.00,109.000000,,2013-04-12 01:22:00,
2013-04-12 01:32:00,34.0,23.0,-100.00,ENE,72,2.0,8.0,63,0.00,,,0.00,109.000000,,2013-04-12 01:32:00,
2013-04-12 01:40:00,31.0,22.0,-100.00,NNE,33,1.0,6.0,70,0.00,,,0.00,31.000000,,2013-04-12 01:40:00,
2013-04-12 02:02:00,31.0,22.0,-100.00,NNE,33,1.0,6.0,70,0.00,,,0.00,31.000000,,2013-04-12 02:02:00,
2013-04-12 02:12:00,31.0,22.0,-100.00,NNE,33,1.0,6.0,70,0.00,,,0.00,31.000000,,2013-04-12 02:12:00,
2013-04-12 02:22:00,31.0,22.0,-100.00,NNE,33,1.0,6.0,70,0.00,,,0.00,31.000000,,2013-04-12 02:22:00,
2013-04-12 02:32:00,31.0,22.0,-100.00,NNE,33,1.0,6.0,70,0.00,,,0.00,31.000000,,2013-04-12 02:32:00,
2013-04-12 02:40:00,29.0,23.0,-100.00,North,352,1.0,5.0,79,0.00,,,0.00,1.000000,,2013-04-12 02:40:00,
2013-04-12 03:02:00,29.0,23.0,-100.00,North,352,1.0,5.0,79,0.00,,,0.00,1.000000,,2013-04-12 03:02:00,
2013-04-12 03:12:00,29.0,23.0,-100.00,North,352,1.0,5.0,79,0.00,,,0.00,1.000000,,2013-04-12 03:12:00,
2013-04-12 03:22:00,29.0,23.0,-100.00,North,352,1.0,5.0,79,0.00,,,0.00,1.000000,,2013-04-12 03:22:00,
2013-04-12 03:33:00,29.0,23.0,-100.00,North,352,1.0,5.0,79,0.00,,,0.00,1.000000,,2013-04-12 03:33:00,
2013-04-12 03:40:00,27.0,26.0,-100.00,NE,43,2.0,6.0,94,0.00,,,0.00,0.000000,,2013-04-12 03:40:00,
2013-04-12 04:03:00,27.0,26.0,-100.00,NE,43,2.0,6.0,94,0.00,,,0.00,0.000000,,2013-04-12 04:03:00,
2013-04-12 04:13:00,27.0,26.0,-100.00,NE,43,2.0,6.0,94,0.00,,,0.00,0.000000,,2013-04-12 04:13:00,
2013-04-12 04:22:00,27.0,26.0,-100.00,NE,43,2.0,6.0,94,0.00,,,0.00,0.000000,,2013-04-12 04:22:00,
2013-04-12 04:33:00,27.0,26.0,-100.00,NE,43,2.0,6.0,94,0.00,,,0.00,0.000000,,2013-04-12 04:33:00,
2013-04-12 04:40:00,26.0,25.0,-100.00,North,9,1.0,4.0,95,0.00,,,0.00,0.000000,,2013-04-12 04:40:00,
2013-04-12 05:03:00,26.0,25.0,-100.00,North,9,1.0,4.0,95,0.00,,,0.00,0.000000,,2013-04-12 05:03:00,
2013-04-12 05:12:00,26.0,25.0,-100.00,North,9,1.0,4.0,95,0.00,,,0.00,0.000000,,2013-04-12 05:12:00,
2013-04-12 05:22:00,26.0,25.0,-100.00,North,9,1.0,4.0,95,0.00,,,0.00,0.000000,,2013-04-12 05:22:00,
2013-04-12 05:32:00,26.0,25.0,-100.00,North,9,1.0,4.0,95,0.00,,,0.00,0.000000,,2013-04-12 05:32:00,
2013-04-12 05:40:00,26.0,25.0,-100.00,NNE,13,0.0,5.0,96,0.00,,,0.00,0.000000,,2013-04-12 05:40:00,
2013-04-12 06:02:00,26.0,25.0,-100.00,NNE,13,0.0,5.0,96,0.00,,,0.00,0.000000,,2013-04-12 06:02:00,
2013-04-12 06:12:00,26.0,25.0,-100.00,NNE,13,0.0,5.0,96,0.00,,,0.00,0.000000,,2013-04-12 06:12:00,
2013-04-12 06:22:00,26.0,25.0,-100.00,NNE,13,0.0,5.0,96,0.00,,,0.00,0.000000,,2013-04-12 06:22:00,
2013-04-12 06:32:00,26.0,25.0,-100.00,NNE,13,0.0,5.0,96,0.00,,,0.00,0.000000,,2013-04-12 06:32:00,
2013-04-12 06:40:00,25.0,24.0,-100.00,ENE,75,1.0,13.0,95,0.00,,,0.00,0.000000,,2013-04-12 06:40:00,
2013-04-12 07:01:00,25.0,24.0,-100.00,ENE,75,1.0,13.0,95,0.00,,,0.00,0.000000,,2013-04-12 07:01:00,
2013-04-12 07:11:00,25.0,24.0,-100.00,ENE,75,1.0,13.0,95,0.00,,,0.00,0.000000,,2013-04-12 07:11:00,
2013-04-12 07:22:00,25.0,24.0,-100.00,ENE,75,1.0,13.0,95,0.00,,,0.00,0.000000,,2013-04-12 07:22:00,
2013-04-12 07:32:00,25.0,24.0,-100.00,ENE,75,1.0,13.0,95,0.00,,,0.00,0.000000,,2013-04-12 07:32:00,
2013-04-12 07:40:00,25.0,22.0,-100.00,NNW,343,0.0,14.0,90,0.00,,,0.00,0.000000,,2013-04-12 07:40:00,
2013-04-12 08:03:00,25.0,22.0,-100.00,NNW,343,0.0,14.0,90,0.00,,,0.00,0.000000,,2013-04-12 08:03:00,
2013-04-12 08:12:00,25.0,22.0,-100.00,NNW,343,0.0,14.0,90,0.00,,,0.00,0.000000,,2013-04-12 08:12:00,
2013-04-12 08:22:00,25.0,22.0,-100.00,NNW,343,0.0,14.0,90,0.00,,,0.00,0.000000,,2013-04-12 08:22:00,
2013-04-12 08:32:00,25.0,22.0,-100.00,NNW,343,0.0,14.0,90,0.00,,,0.00,0.000000,,2013-04-12 08:32:00,
2013-04-12 08:40:00,23.0,22.0,-100.00,North,2,3.0,8.0,94,0.00,,,0.00,0.000000,,2013-04-12 08:40:00,
2013-04-12 09:02:00,23.0,22.0,-100.00,North,2,3.0,8.0,94,0.00,,,0.00,0.000000,,2013-04-12 09:02:00,
2013-04-12 09:12:00,23.0,22.0,-100.00,North,2,3.0,8.0,94,0.00,,,0.00,0.000000,,2013-04-12 09:12:00,
2013-04-12 09:22:00,23.0,22.0,-100.00,North,2,3.0,8.0,94,0.00,,,0.00,0.000000,,2013-04-12 09:22:00,
2013-04-12 09:32:00,23.0,22.0,-100.00,North,2,3.0,8.0,94,0.00,,,0.00,0.000000,,2013-04-12 09:32:00,
2013-04-12 09:40:00,21.0,20.0,-100.00,NNE,13,0.0,3.0,94,0.00,,,0.00,0.000000,,2013-04-12 09:40:00,
2013-04-12 10:02:00,21.0,20.0,-100.00,NNE,13,0.0,3.0,94,0.00,,,0.00,0.000000,,2013-04-12 10:02:00,
2013-04-12 10:12:00,21.0,20.0,-100.00,NNE,13,0.0,3.0,94,0.00,,,0.00,0.000000,,2013-04-12 10:12:00,
2013-04-12 10:22:00,21.0,20.0,-100.00,NNE,13,0.0,3.0,94,0.00,,,0.00,0.000000,,2013-04-12 10:22:00,
2013-04-12 10:33:00,21.0,20.0,-100.00,NNE,13,0.0,3.0,94,0.00,,,0.00,0.000000,,2013-04-12 10:33:00,
2013-04-12 10:40:00,22.0,21.0,-100.00,WNW,302,3.0,9.0,94,0.00,,,0.00,0.000000,,2013-04-12 10:40:00,
2013-04-12 11:02:00,22.0,21.0,-100.00,WNW,302,3.0,9.0,94,0.00,,,0.00,0.000000,,2013-04-12 11:02:00,
2013-04-12 11:12:00,22.0,21.0,-100.00,WNW,302,3.0,9.0,94,0.00,,,0.00,0.000000,,2013-04-12 11:12:00,
2013-04-12 11:22:00,22.0,21.0,-100.00,WNW,302,3.0,9.0,94,0.00,,,0.00,0.000000,,2013-04-12 11:22:00,
2013-04-12 11:32:00,22.0,21.0,-100.00,WNW,302,3.0,9.0,94,0.00,,,0.00,0.000000,,2013-04-12 11:32:00,
2013-04-12 11:40:00,21.0,19.0,-100.00,NW,324,1.0,12.0,93,0.00,,,0.00,0.000000,,2013-04-12 11:40:00,
2013-04-12 12:02:00,21.0,19.0,-100.00,NW,324,1.0,12.0,93,0.00,,,0.00,0.000000,,2013-04-12 12:02:00,
2013-04-12 12:12:00,21.0,19.0,-100.00,NW,324,1.0,12.0,93,0.00,,,0.00,0.000000,,2013-04-12 12:12:00,
2013-04-12 12:22:00,21.0,19.0,-100.00,NW,324,1.0,12.0,93,0.00,,,0.00,0.000000,,2013-04-12 12:22:00,
2013-04-12 12:32:00,21.0,19.0,-100.00,NW,324,1.0,12.0,93,0.00,,,0.00,0.000000,,2013-04-12 12:32:00,
2013-04-12 12:40:00,19.0,13.0,-100.00,WNW,287,11.0,22.0,78,0.00,,,0.00,0.000000,,2013-04-12 12:40:00,
2013-04-12 13:03:00,19.0,13.0,-100.00,WNW,287,11.0,22.0,78,0.00,,,0.00,0.000000,,2013-04-12 13:03:00,
2013-04-12 13:12:00,19.0,13.0,-100.00,WNW,287,11.0,22.0,78,0.00,,,0.00,0.000000,,2013-04-12 13:12:00,
2013-04-12 13:22:00,19.0,13.0,-100.00,WNW,287,11.0,22.0,78,0.00,,,0.00,0.000000,,2013-04-12 13:22:00,
2013-04-12 13:32:00,19.0,13.0,-100.00,WNW,287,11.0,22.0,78,0.00,,,0.00,0.000000,,2013-04-12 13:32:00,
2013-04-12 13:40:00,24.0,13.0,-100.00,WNW,288,12.0,18.0,61,0.00,,,0.00,17.000000,,2013-04-12 13:40:00,
2013-04-12 14:03:00,24.0,13.0,-100.00,WNW,288,12.0,18.0,61,0.00,,,0.00,17.000000,,2013-04-12 14:03:00,
2013-04-12 14:22:00,24.0,13.0,-100.00,WNW,288,12.0,18.0,61,0.00,,,0.00,17.000000,,2013-04-12 14:22:00,
2013-04-12 14:32:00,24.0,13.0,-100.00,WNW,288,12.0,18.0,61,0.00,,,0.00,17.000000,,2013-04-12 14:32:00,
2013-04-12 15:02:00,32.0,15.0,-100.00,West,279,2.0,17.0,49,0.00,,,-99.99,66.000000,,2013-04-12 15:02:00,
2013-04-12 15:40:00,34.0,16.0,-100.00,NNW,337,3.0,10.0,47,-99.99,,,-99.99,145.000000,,2013-04-12 15:40:00,
2013-04-12 16:03:00,34.0,16.0,-100.00,NNW,337,3.0,10.0,47,-99.99,,,-99.99,145.000000,,2013-04-12 16:03:00,
2013-04-12 17:03:00,34.0,19.0,-100.00,NW,307,2.0,7.0,54,-99.99,,,0.10,314.000000,,2013-04-12 17:03:00,
2013-04-12 17:12:00,34.0,19.0,-100.00,NW,307,2.0,7.0,54,-99.99,,,0.10,314.000000,,2013-04-12 17:12:00,
2013-04-12 17:22:00,34.0,19.0,-100.00,NW,307,2.0,7.0,54,-99.99,,,0.10,314.000000,,2013-04-12 17:22:00,
2013-04-12 17:32:00,34.0,19.0,-100.00,NW,307,2.0,7.0,54,-99.99,,,0.10,314.000000,,2013-04-12 17:32:00,
2013-04-12 18:08:00,31.0,22.0,-100.00,NNE,33,3.0,7.0,69,-99.99,,,0.10,376.000000,,2013-04-12 18:08:00,
2013-04-12 18:15:00,31.0,22.0,-100.00,NNE,33,3.0,7.0,69,-99.99,,,0.10,376.000000,,2013-04-12 18:15:00,
2013-04-12 18:29:00,31.0,22.0,-100.00,NNE,33,3.0,7.0,69,-99.99,,,0.10,376.000000,,2013-04-12 18:29:00,
2013-04-12 18:40:00,28.0,20.0,-100.00,NE,41,2.0,7.0,73,0.00,,,0.10,313.000000,,2013-04-12 18:40:00,
2013-04-12 19:26:00,28.0,20.0,-100.00,NE,41,2.0,7.0,73,0.00,,,0.10,313.000000,,2013-04-12 19:26:00,
2013-04-12 19:32:00,28.0,20.0,-100.00,NE,41,2.0,7.0,73,0.00,,,0.10,313.000000,,2013-04-12 19:32:00,
2013-04-12 19:40:00,28.0,21.0,-100.00,NE,34,2.0,7.0,75,0.00,,,0.10,277.000000,,2013-04-12 19:40:00,
2013-04-12 20:02:00,28.0,21.0,-100.00,NE,34,2.0,7.0,75,0.00,,,0.10,277.000000,,2013-04-12 20:02:00,
2013-04-12 20:12:00,28.0,21.0,-100.00,NE,34,2.0,7.0,75,0.00,,,0.10,277.000000,,2013-04-12 20:12:00,
2013-04-12 20:22:00,28.0,21.0,-100.00,NE,34,2.0,7.0,75,0.00,,,0.10,277.000000,,2013-04-12 20:22:00,
2013-04-12 20:32:00,28.0,21.0,-100.00,NE,34,2.0,7.0,75,0.00,,,0.10,277.000000,,2013-04-12 20:32:00,
2013-04-12 20:40:00,36.0,22.0,-100.00,SE,128,4.0,9.0,56,0.00,,,0.10,662.000000,,2013-04-12 20:40:00,
2013-04-12 21:02:00,36.0,22.0,-100.00,SE,128,4.0,9.0,56,0.00,,,0.10,662.000000,,2013-04-12 21:02:00,
2013-04-12 21:11:00,36.0,22.0,-100.00,SE,128,4.0,9.0,56,0.00,,,0.10,662.000000,,2013-04-12 21:11:00,
2013-04-12 21:22:00,36.0,22.0,-100.00,SE,128,4.0,9.0,56,0.00,,,0.10,662.000000,,2013-04-12 21:22:00,
2013-04-12 21:32:00,36.0,22.0,-100.00,SE,128,4.0,9.0,56,0.00,,,0.10,662.000000,,2013-04-12 21:32:00,
2013-04-12 21:40:00,33.0,21.0,-100.00,East,80,5.0,11.0,60,0.00,,,0.10,712.000000,,2013-04-12 21:40:00,
2013-04-12 22:02:00,33.0,21.0,-100.00,East,80,5.0,11.0,60,0.00,,,0.10,712.000000,,2013-04-12 22:02:00,
2013-04-12 22:12:00,33.0,21.0,-100.00,East,80,5.0,11.0,60,0.00,,,0.10,712.000000,,2013-04-12 22:12:00,
2013-04-12 22:22:00,33.0,21.0,-100.00,East,80,5.0,11.0,60,0.00,,,0.10,712.000000,,2013-04-12 22:22:00,
2013-04-12 22:32:00,33.0,21.0,-100.00,East,80,5.0,11.0,60,0.00,,,0.10,712.000000,,2013-04-12 22:32:00,
2013-04-12 22:40:00,35.0,21.0,-100.00,East,82,4.0,9.0,56,0.00,,,0.10,704.000000,,2013-04-12 22:40:00,
2013-04-12 23:03:00,35.0,21.0,-100.00,East,82,4.0,9.0,56,0.00,,,0.10,704.000000,,2013-04-12 23:03:00,
2013-04-12 23:12:00,35.0,21.0,-100.00,East,82,4.0,9.0,56,0.00,,,0.10,704.000000,,2013-04-12 23:12:00,
2013-04-12 23:22:00,35.0,21.0,-100.00,East,82,4.0,9.0,56,0.00,,,0.10,704.000000,,2013-04-12 23:22:00,
2013-04-12 23:32:00,35.0,21.0,-100.00,East,82,4.0,9.0,56,0.00,,,0.10,704.000000,,2013-04-12 23:32:00,